sensor_id;sensor_type;location;lat;lon;timestamp;P1;durP1;ratioP1;P2;durP2;ratioP2
11024;SDS011;22890;51.820;8.682;2023-07-13T00:01:49;3.03;;;1.97;;
11024;SDS011;22890;51.820;8.682;2023-07-13T00:04:17;4.67;;;2.57;;
11024;SDS011;22890;51.820;8.682;2023-07-13T00:06:45;3.60;;;2.13;;
11024;SDS011;22890;51.820;8.682;2023-07-13T00:09:14;4.43;;;2.00;;
11024;SDS011;22890;51.820;8.682;2023-07-13T00:11:42;5.73;;;2.33;;
11024;SDS011;22890;51.820;8.682;2023-07-13T00:14:10;7.13;;;2.30;;
11024;SDS011;22890;51.820;8.682;2023-07-13T00:16:37;4.20;;;2.00;;
11024;SDS011;22890;51.820;8.682;2023-07-13T00:19:06;2.13;;;1.90;;
11024;SDS011;22890;51.820;8.682;2023-07-13T00:21:33;2.37;;;1.80;;
11024;SDS011;22890;51.820;8.682;2023-07-13T00:24:01;6.33;;;2.60;;
11024;SDS011;22890;51.820;8.682;2023-07-13T00:26:29;3.40;;;2.00;;
11024;SDS011;22890;51.820;8.682;2023-07-13T00:28:55;5.07;;;2.67;;
11024;SDS011;22890;51.820;8.682;2023-07-13T00:31:22;3.83;;;2.37;;
11024;SDS011;22890;51.820;8.682;2023-07-13T00:33:49;6.50;;;2.50;;
11024;SDS011;22890;51.820;8.682;2023-07-13T00:36:16;3.00;;;2.30;;
11024;SDS011;22890;51.820;8.682;2023-07-13T00:38:43;4.13;;;2.13;;
11024;SDS011;22890;51.820;8.682;2023-07-13T00:41:10;3.80;;;2.50;;
11024;SDS011;22890;51.820;8.682;2023-07-13T00:43:37;4.10;;;2.70;;
11024;SDS011;22890;51.820;8.682;2023-07-13T00:46:16;3.20;;;2.10;;
11024;SDS011;22890;51.820;8.682;2023-07-13T00:48:46;3.13;;;2.33;;
11024;SDS011;22890;51.820;8.682;2023-07-13T00:51:16;2.13;;;1.67;;
11024;SDS011;22890;51.820;8.682;2023-07-13T00:53:47;3.47;;;1.80;;
11024;SDS011;22890;51.820;8.682;2023-07-13T00:56:14;5.70;;;2.60;;
11024;SDS011;22890;51.820;8.682;2023-07-13T00:58:41;3.60;;;2.10;;
11024;SDS011;22890;51.820;8.682;2023-07-13T01:01:08;7.13;;;2.27;;
11024;SDS011;22890;51.820;8.682;2023-07-13T01:03:34;2.50;;;2.00;;
11024;SDS011;22890;51.820;8.682;2023-07-13T01:06:02;3.00;;;2.00;;
11024;SDS011;22890;51.820;8.682;2023-07-13T01:08:29;3.70;;;2.00;;
11024;SDS011;22890;51.820;8.682;2023-07-13T01:10:58;3.00;;;2.20;;
11024;SDS011;22890;51.820;8.682;2023-07-13T01:13:25;4.30;;;2.50;;
11024;SDS011;22890;51.820;8.682;2023-07-13T01:15:52;4.00;;;2.30;;
11024;SDS011;22890;51.820;8.682;2023-07-13T01:18:23;4.70;;;2.30;;
11024;SDS011;22890;51.820;8.682;2023-07-13T01:21:01;3.53;;;2.10;;
11024;SDS011;22890;51.820;8.682;2023-07-13T01:23:29;2.50;;;2.23;;
11024;SDS011;22890;51.820;8.682;2023-07-13T01:25:58;3.93;;;2.50;;
11024;SDS011;22890;51.820;8.682;2023-07-13T01:28:26;4.13;;;2.33;;
11024;SDS011;22890;51.820;8.682;2023-07-13T01:30:55;2.23;;;2.00;;
11024;SDS011;22890;51.820;8.682;2023-07-13T01:33:23;3.00;;;2.00;;
11024;SDS011;22890;51.820;8.682;2023-07-13T01:35:50;3.47;;;2.50;;
11024;SDS011;22890;51.820;8.682;2023-07-13T01:38:18;3.93;;;2.23;;
11024;SDS011;22890;51.820;8.682;2023-07-13T01:40:47;2.33;;;2.10;;
11024;SDS011;22890;51.820;8.682;2023-07-13T01:43:13;2.97;;;2.13;;
11024;SDS011;22890;51.820;8.682;2023-07-13T01:45:40;3.20;;;2.27;;
11024;SDS011;22890;51.820;8.682;2023-07-13T01:48:11;2.77;;;2.13;;
11024;SDS011;22890;51.820;8.682;2023-07-13T01:50:38;3.40;;;2.37;;
11024;SDS011;22890;51.820;8.682;2023-07-13T01:53:06;2.90;;;1.97;;
11024;SDS011;22890;51.820;8.682;2023-07-13T01:55:34;5.47;;;2.00;;
11024;SDS011;22890;51.820;8.682;2023-07-13T01:58:02;3.53;;;2.27;;
11024;SDS011;22890;51.820;8.682;2023-07-13T02:00:30;4.43;;;2.40;;
11024;SDS011;22890;51.820;8.682;2023-07-13T02:02:57;2.80;;;2.03;;
11024;SDS011;22890;51.820;8.682;2023-07-13T02:05:24;3.07;;;2.53;;
11024;SDS011;22890;51.820;8.682;2023-07-13T02:07:51;6.50;;;2.77;;
11024;SDS011;22890;51.820;8.682;2023-07-13T02:10:19;7.70;;;2.83;;
11024;SDS011;22890;51.820;8.682;2023-07-13T02:12:47;9.57;;;3.03;;
11024;SDS011;22890;51.820;8.682;2023-07-13T02:15:16;3.30;;;2.37;;
11024;SDS011;22890;51.820;8.682;2023-07-13T02:17:43;6.77;;;3.00;;
11024;SDS011;22890;51.820;8.682;2023-07-13T02:20:10;5.27;;;3.10;;
11024;SDS011;22890;51.820;8.682;2023-07-13T02:22:37;6.20;;;3.50;;
11024;SDS011;22890;51.820;8.682;2023-07-13T02:25:04;7.83;;;3.17;;
11024;SDS011;22890;51.820;8.682;2023-07-13T02:27:31;3.87;;;2.80;;
11024;SDS011;22890;51.820;8.682;2023-07-13T02:29:58;4.07;;;3.23;;
11024;SDS011;22890;51.820;8.682;2023-07-13T02:32:25;5.80;;;3.13;;
11024;SDS011;22890;51.820;8.682;2023-07-13T02:34:52;3.93;;;3.00;;
11024;SDS011;22890;51.820;8.682;2023-07-13T02:37:19;4.03;;;3.60;;
11024;SDS011;22890;51.820;8.682;2023-07-13T02:39:46;4.17;;;3.53;;
11024;SDS011;22890;51.820;8.682;2023-07-13T02:42:14;3.77;;;3.10;;
11024;SDS011;22890;51.820;8.682;2023-07-13T02:44:43;4.27;;;3.30;;
11024;SDS011;22890;51.820;8.682;2023-07-13T02:47:09;5.80;;;3.33;;
11024;SDS011;22890;51.820;8.682;2023-07-13T02:49:36;5.00;;;3.07;;
11024;SDS011;22890;51.820;8.682;2023-07-13T02:52:03;5.87;;;3.30;;
11024;SDS011;22890;51.820;8.682;2023-07-13T02:54:30;4.10;;;3.70;;
11024;SDS011;22890;51.820;8.682;2023-07-13T02:56:58;6.50;;;3.30;;
11024;SDS011;22890;51.820;8.682;2023-07-13T02:59:24;5.63;;;3.77;;
11024;SDS011;22890;51.820;8.682;2023-07-13T03:01:51;6.73;;;3.30;;
11024;SDS011;22890;51.820;8.682;2023-07-13T03:04:18;4.57;;;2.87;;
11024;SDS011;22890;51.820;8.682;2023-07-13T03:06:46;5.00;;;3.07;;
11024;SDS011;22890;51.820;8.682;2023-07-13T03:09:14;2.80;;;2.60;;
11024;SDS011;22890;51.820;8.682;2023-07-13T03:11:46;2.83;;;2.63;;
11024;SDS011;22890;51.820;8.682;2023-07-13T03:14:20;7.13;;;3.27;;
11024;SDS011;22890;51.820;8.682;2023-07-13T03:16:51;4.17;;;3.50;;
11024;SDS011;22890;51.820;8.682;2023-07-13T03:19:21;8.20;;;3.77;;
11024;SDS011;22890;51.820;8.682;2023-07-13T03:21:49;9.00;;;3.47;;
11024;SDS011;22890;51.820;8.682;2023-07-13T03:24:16;4.63;;;3.10;;
11024;SDS011;22890;51.820;8.682;2023-07-13T03:26:43;4.07;;;3.17;;
11024;SDS011;22890;51.820;8.682;2023-07-13T03:29:10;5.70;;;3.00;;
11024;SDS011;22890;51.820;8.682;2023-07-13T03:31:37;5.80;;;3.10;;
11024;SDS011;22890;51.820;8.682;2023-07-13T03:34:04;4.10;;;2.93;;
11024;SDS011;22890;51.820;8.682;2023-07-13T03:36:32;5.70;;;2.80;;
11024;SDS011;22890;51.820;8.682;2023-07-13T03:39:03;5.40;;;2.83;;
11024;SDS011;22890;51.820;8.682;2023-07-13T03:41:39;4.67;;;2.47;;
11024;SDS011;22890;51.820;8.682;2023-07-13T03:44:06;3.90;;;2.43;;
11024;SDS011;22890;51.820;8.682;2023-07-13T03:46:33;4.63;;;3.00;;
11024;SDS011;22890;51.820;8.682;2023-07-13T03:49:01;5.67;;;2.50;;
11024;SDS011;22890;51.820;8.682;2023-07-13T03:51:28;3.27;;;2.30;;
11024;SDS011;22890;51.820;8.682;2023-07-13T03:53:54;5.00;;;2.93;;
11024;SDS011;22890;51.820;8.682;2023-07-13T03:56:21;4.13;;;2.70;;
11024;SDS011;22890;51.820;8.682;2023-07-13T03:58:49;6.80;;;2.83;;
11024;SDS011;22890;51.820;8.682;2023-07-13T04:01:19;9.43;;;2.60;;
11024;SDS011;22890;51.820;8.682;2023-07-13T04:03:47;6.03;;;2.53;;
11024;SDS011;22890;51.820;8.682;2023-07-13T04:06:16;7.87;;;2.57;;
11024;SDS011;22890;51.820;8.682;2023-07-13T04:09:00;3.73;;;2.20;;
11024;SDS011;22890;51.820;8.682;2023-07-13T04:11:29;2.80;;;2.20;;
11024;SDS011;22890;51.820;8.682;2023-07-13T04:13:58;9.40;;;2.23;;
11024;SDS011;22890;51.820;8.682;2023-07-13T04:16:26;3.83;;;2.23;;
11024;SDS011;22890;51.820;8.682;2023-07-13T04:18:53;3.67;;;1.90;;
11024;SDS011;22890;51.820;8.682;2023-07-13T04:21:23;5.53;;;2.50;;
11024;SDS011;22890;51.820;8.682;2023-07-13T04:23:50;8.00;;;2.80;;
11024;SDS011;22890;51.820;8.682;2023-07-13T04:26:17;8.73;;;2.40;;
11024;SDS011;22890;51.820;8.682;2023-07-13T04:28:45;4.43;;;1.83;;
11024;SDS011;22890;51.820;8.682;2023-07-13T04:31:12;7.77;;;2.07;;
11024;SDS011;22890;51.820;8.682;2023-07-13T04:33:39;6.77;;;1.97;;
11024;SDS011;22890;51.820;8.682;2023-07-13T04:36:06;5.47;;;1.60;;
11024;SDS011;22890;51.820;8.682;2023-07-13T04:38:33;10.27;;;1.60;;
11024;SDS011;22890;51.820;8.682;2023-07-13T04:41:01;3.60;;;1.73;;
11024;SDS011;22890;51.820;8.682;2023-07-13T04:43:30;4.63;;;1.90;;
11024;SDS011;22890;51.820;8.682;2023-07-13T04:45:57;2.73;;;1.67;;
11024;SDS011;22890;51.820;8.682;2023-07-13T04:48:29;10.60;;;2.43;;
11024;SDS011;22890;51.820;8.682;2023-07-13T04:50:56;2.77;;;1.50;;
11024;SDS011;22890;51.820;8.682;2023-07-13T04:53:24;6.67;;;2.13;;
11024;SDS011;22890;51.820;8.682;2023-07-13T04:55:51;3.20;;;1.60;;
11024;SDS011;22890;51.820;8.682;2023-07-13T04:58:18;3.20;;;1.40;;
11024;SDS011;22890;51.820;8.682;2023-07-13T05:00:44;4.20;;;1.47;;
11024;SDS011;22890;51.820;8.682;2023-07-13T05:03:11;3.57;;;1.67;;
11024;SDS011;22890;51.820;8.682;2023-07-13T05:05:38;4.90;;;1.70;;
11024;SDS011;22890;51.820;8.682;2023-07-13T05:08:05;3.17;;;1.40;;
11024;SDS011;22890;51.820;8.682;2023-07-13T05:10:33;4.87;;;1.40;;
11024;SDS011;22890;51.820;8.682;2023-07-13T05:13:01;4.50;;;1.83;;
11024;SDS011;22890;51.820;8.682;2023-07-13T05:15:28;5.23;;;2.20;;
11024;SDS011;22890;51.820;8.682;2023-07-13T05:17:54;3.30;;;1.50;;
11024;SDS011;22890;51.820;8.682;2023-07-13T05:20:21;4.13;;;1.90;;
11024;SDS011;22890;51.820;8.682;2023-07-13T05:22:48;6.37;;;1.90;;
11024;SDS011;22890;51.820;8.682;2023-07-13T05:25:15;6.13;;;1.70;;
11024;SDS011;22890;51.820;8.682;2023-07-13T05:27:41;3.80;;;1.47;;
11024;SDS011;22890;51.820;8.682;2023-07-13T05:30:08;4.03;;;1.30;;
11024;SDS011;22890;51.820;8.682;2023-07-13T05:32:37;6.83;;;1.57;;
11024;SDS011;22890;51.820;8.682;2023-07-13T05:35:04;3.57;;;1.50;;
11024;SDS011;22890;51.820;8.682;2023-07-13T05:37:32;5.10;;;1.93;;
11024;SDS011;22890;51.820;8.682;2023-07-13T05:39:59;5.13;;;1.43;;
11024;SDS011;22890;51.820;8.682;2023-07-13T05:42:26;4.30;;;1.27;;
11024;SDS011;22890;51.820;8.682;2023-07-13T05:44:53;3.83;;;1.60;;
11024;SDS011;22890;51.820;8.682;2023-07-13T05:47:20;5.10;;;1.77;;
11024;SDS011;22890;51.820;8.682;2023-07-13T05:49:47;3.80;;;1.37;;
11024;SDS011;22890;51.820;8.682;2023-07-13T05:52:13;2.53;;;1.50;;
11024;SDS011;22890;51.820;8.682;2023-07-13T05:54:40;5.13;;;1.47;;
11024;SDS011;22890;51.820;8.682;2023-07-13T05:57:07;3.43;;;1.10;;
11024;SDS011;22890;51.820;8.682;2023-07-13T05:59:33;8.40;;;1.80;;
11024;SDS011;22890;51.820;8.682;2023-07-13T06:02:01;6.23;;;1.40;;
11024;SDS011;22890;51.820;8.682;2023-07-13T06:04:28;3.53;;;1.40;;
11024;SDS011;22890;51.820;8.682;2023-07-13T06:06:55;5.10;;;1.40;;
11024;SDS011;22890;51.820;8.682;2023-07-13T06:09:22;14.67;;;2.00;;
11024;SDS011;22890;51.820;8.682;2023-07-13T06:11:48;3.93;;;1.53;;
11024;SDS011;22890;51.820;8.682;2023-07-13T06:14:15;7.53;;;1.90;;
11024;SDS011;22890;51.820;8.682;2023-07-13T06:16:42;4.80;;;1.73;;
11024;SDS011;22890;51.820;8.682;2023-07-13T06:19:09;8.53;;;1.87;;
11024;SDS011;22890;51.820;8.682;2023-07-13T06:21:35;5.93;;;1.33;;
11024;SDS011;22890;51.820;8.682;2023-07-13T06:24:02;3.67;;;1.60;;
11024;SDS011;22890;51.820;8.682;2023-07-13T06:26:29;10.07;;;2.00;;
11024;SDS011;22890;51.820;8.682;2023-07-13T06:28:56;4.00;;;1.43;;
11024;SDS011;22890;51.820;8.682;2023-07-13T06:31:23;7.57;;;1.73;;
11024;SDS011;22890;51.820;8.682;2023-07-13T06:33:50;5.63;;;1.70;;
11024;SDS011;22890;51.820;8.682;2023-07-13T06:36:16;4.73;;;1.60;;
11024;SDS011;22890;51.820;8.682;2023-07-13T06:38:43;3.80;;;1.53;;
11024;SDS011;22890;51.820;8.682;2023-07-13T06:41:10;4.50;;;1.40;;
11024;SDS011;22890;51.820;8.682;2023-07-13T06:43:37;3.37;;;1.60;;
11024;SDS011;22890;51.820;8.682;2023-07-13T06:46:04;6.33;;;1.93;;
11024;SDS011;22890;51.820;8.682;2023-07-13T06:48:31;2.57;;;1.43;;
11024;SDS011;22890;51.820;8.682;2023-07-13T06:50:58;6.03;;;1.60;;
11024;SDS011;22890;51.820;8.682;2023-07-13T06:53:25;6.43;;;1.80;;
11024;SDS011;22890;51.820;8.682;2023-07-13T06:55:51;3.80;;;1.40;;
11024;SDS011;22890;51.820;8.682;2023-07-13T06:58:18;5.07;;;2.00;;
11024;SDS011;22890;51.820;8.682;2023-07-13T07:00:46;3.07;;;1.53;;
11024;SDS011;22890;51.820;8.682;2023-07-13T07:03:16;6.40;;;1.70;;
11024;SDS011;22890;51.820;8.682;2023-07-13T07:05:43;4.83;;;1.80;;
11024;SDS011;22890;51.820;8.682;2023-07-13T07:08:10;3.27;;;1.80;;
11024;SDS011;22890;51.820;8.682;2023-07-13T07:10:36;5.47;;;1.50;;
11024;SDS011;22890;51.820;8.682;2023-07-13T07:13:03;4.77;;;1.70;;
11024;SDS011;22890;51.820;8.682;2023-07-13T07:15:30;8.80;;;2.60;;
11024;SDS011;22890;51.820;8.682;2023-07-13T07:17:57;5.33;;;1.80;;
11024;SDS011;22890;51.820;8.682;2023-07-13T07:20:24;5.90;;;1.67;;
11024;SDS011;22890;51.820;8.682;2023-07-13T07:22:51;8.83;;;1.93;;
11024;SDS011;22890;51.820;8.682;2023-07-13T07:25:18;5.87;;;1.97;;
11024;SDS011;22890;51.820;8.682;2023-07-13T07:27:45;4.07;;;2.00;;
11024;SDS011;22890;51.820;8.682;2023-07-13T07:30:15;5.23;;;1.97;;
11024;SDS011;22890;51.820;8.682;2023-07-13T07:32:44;5.97;;;2.03;;
11024;SDS011;22890;51.820;8.682;2023-07-13T07:35:14;4.60;;;2.00;;
11024;SDS011;22890;51.820;8.682;2023-07-13T07:37:41;8.70;;;1.97;;
11024;SDS011;22890;51.820;8.682;2023-07-13T07:40:10;8.10;;;2.20;;
11024;SDS011;22890;51.820;8.682;2023-07-13T07:42:40;5.73;;;1.90;;
11024;SDS011;22890;51.820;8.682;2023-07-13T07:45:07;5.77;;;1.87;;
11024;SDS011;22890;51.820;8.682;2023-07-13T07:47:34;5.53;;;2.10;;
11024;SDS011;22890;51.820;8.682;2023-07-13T07:50:01;4.50;;;1.50;;
11024;SDS011;22890;51.820;8.682;2023-07-13T07:52:27;4.13;;;1.80;;
11024;SDS011;22890;51.820;8.682;2023-07-13T07:54:54;4.53;;;2.07;;
11024;SDS011;22890;51.820;8.682;2023-07-13T07:57:41;5.53;;;2.13;;
11024;SDS011;22890;51.820;8.682;2023-07-13T08:00:11;7.37;;;1.90;;
11024;SDS011;22890;51.820;8.682;2023-07-13T08:02:41;4.67;;;1.70;;
11024;SDS011;22890;51.820;8.682;2023-07-13T08:05:28;6.30;;;1.97;;
11024;SDS011;22890;51.820;8.682;2023-07-13T08:07:58;8.37;;;2.30;;
11024;SDS011;22890;51.820;8.682;2023-07-13T08:10:24;9.93;;;3.53;;
11024;SDS011;22890;51.820;8.682;2023-07-13T08:12:52;8.30;;;2.30;;
11024;SDS011;22890;51.820;8.682;2023-07-13T08:15:21;5.90;;;2.07;;
11024;SDS011;22890;51.820;8.682;2023-07-13T08:17:48;6.00;;;1.90;;
11024;SDS011;22890;51.820;8.682;2023-07-13T08:20:15;5.03;;;1.80;;
11024;SDS011;22890;51.820;8.682;2023-07-13T08:22:42;4.17;;;2.07;;
11024;SDS011;22890;51.820;8.682;2023-07-13T08:25:09;6.07;;;2.10;;
11024;SDS011;22890;51.820;8.682;2023-07-13T08:27:36;4.73;;;2.80;;
11024;SDS011;22890;51.820;8.682;2023-07-13T08:30:03;8.13;;;2.47;;
11024;SDS011;22890;51.820;8.682;2023-07-13T08:32:31;4.97;;;2.10;;
11024;SDS011;22890;51.820;8.682;2023-07-13T08:34:58;4.53;;;1.97;;
11024;SDS011;22890;51.820;8.682;2023-07-13T08:37:25;10.70;;;2.40;;
11024;SDS011;22890;51.820;8.682;2023-07-13T08:39:52;4.87;;;2.13;;
11024;SDS011;22890;51.820;8.682;2023-07-13T08:42:26;5.00;;;2.00;;
11024;SDS011;22890;51.820;8.682;2023-07-13T08:45:17;4.57;;;2.33;;
11024;SDS011;22890;51.820;8.682;2023-07-13T08:47:51;4.33;;;1.90;;
11024;SDS011;22890;51.820;8.682;2023-07-13T08:50:21;4.93;;;2.00;;
11024;SDS011;22890;51.820;8.682;2023-07-13T08:52:55;4.57;;;1.97;;
11024;SDS011;22890;51.820;8.682;2023-07-13T08:55:27;3.70;;;1.80;;
11024;SDS011;22890;51.820;8.682;2023-07-13T08:58:02;5.77;;;2.30;;
11024;SDS011;22890;51.820;8.682;2023-07-13T09:00:38;6.37;;;2.27;;
11024;SDS011;22890;51.820;8.682;2023-07-13T09:03:30;7.47;;;2.20;;
11024;SDS011;22890;51.820;8.682;2023-07-13T09:06:03;4.47;;;2.00;;
11024;SDS011;22890;51.820;8.682;2023-07-13T09:14:06;5.87;;;1.97;;
11024;SDS011;22890;51.820;8.682;2023-07-13T09:16:54;5.63;;;1.90;;
11024;SDS011;22890;51.820;8.682;2023-07-13T09:19:24;7.03;;;1.80;;
11024;SDS011;22890;51.820;8.682;2023-07-13T09:21:54;5.20;;;1.83;;
11024;SDS011;22890;51.820;8.682;2023-07-13T09:27:03;3.10;;;1.50;;
11024;SDS011;22890;51.820;8.682;2023-07-13T09:30:00;5.17;;;1.70;;
11024;SDS011;22890;51.820;8.682;2023-07-13T09:32:31;3.77;;;1.70;;
11024;SDS011;22890;51.820;8.682;2023-07-13T09:34:59;7.57;;;2.07;;
11024;SDS011;22890;51.820;8.682;2023-07-13T09:37:29;5.57;;;2.13;;
11024;SDS011;22890;51.820;8.682;2023-07-13T09:39:59;4.77;;;1.77;;
11024;SDS011;22890;51.820;8.682;2023-07-13T09:42:27;5.17;;;1.30;;
11024;SDS011;22890;51.820;8.682;2023-07-13T09:44:58;4.43;;;2.00;;
11024;SDS011;22890;51.820;8.682;2023-07-13T09:47:29;3.87;;;1.70;;
11024;SDS011;22890;51.820;8.682;2023-07-13T09:49:59;2.77;;;1.40;;
11024;SDS011;22890;51.820;8.682;2023-07-13T09:52:39;5.03;;;2.70;;
11024;SDS011;22890;51.820;8.682;2023-07-13T09:55:23;4.50;;;1.87;;
11024;SDS011;22890;51.820;8.682;2023-07-13T09:58:04;6.67;;;1.80;;
11024;SDS011;22890;51.820;8.682;2023-07-13T10:00:31;5.33;;;1.90;;
11024;SDS011;22890;51.820;8.682;2023-07-13T10:02:59;5.00;;;2.13;;
11024;SDS011;22890;51.820;8.682;2023-07-13T10:05:45;6.90;;;2.17;;
11024;SDS011;22890;51.820;8.682;2023-07-13T10:08:23;6.50;;;1.80;;
11024;SDS011;22890;51.820;8.682;2023-07-13T10:10:57;6.93;;;1.40;;
11024;SDS011;22890;51.820;8.682;2023-07-13T10:13:36;3.87;;;1.70;;
11024;SDS011;22890;51.820;8.682;2023-07-13T10:16:08;4.80;;;2.00;;
11024;SDS011;22890;51.820;8.682;2023-07-13T10:18:42;5.03;;;2.00;;
11024;SDS011;22890;51.820;8.682;2023-07-13T10:21:22;4.33;;;2.13;;
11024;SDS011;22890;51.820;8.682;2023-07-13T10:26:58;5.43;;;1.93;;
11024;SDS011;22890;51.820;8.682;2023-07-13T10:29:34;2.67;;;1.53;;
11024;SDS011;22890;51.820;8.682;2023-07-13T10:32:08;6.83;;;1.90;;
11024;SDS011;22890;51.820;8.682;2023-07-13T10:34:37;2.30;;;1.60;;
11024;SDS011;22890;51.820;8.682;2023-07-13T10:37:07;4.30;;;1.80;;
11024;SDS011;22890;51.820;8.682;2023-07-13T10:39:43;3.30;;;1.80;;
11024;SDS011;22890;51.820;8.682;2023-07-13T10:42:11;3.87;;;1.70;;
11024;SDS011;22890;51.820;8.682;2023-07-13T10:44:41;3.67;;;1.90;;
11024;SDS011;22890;51.820;8.682;2023-07-13T10:47:10;1.73;;;1.47;;
11024;SDS011;22890;51.820;8.682;2023-07-13T10:49:41;5.67;;;2.23;;
11024;SDS011;22890;51.820;8.682;2023-07-13T10:58:20;4.00;;;1.73;;
11024;SDS011;22890;51.820;8.682;2023-07-13T11:06:33;3.77;;;1.50;;
11024;SDS011;22890;51.820;8.682;2023-07-13T11:12:10;2.80;;;1.20;;
11024;SDS011;22890;51.820;8.682;2023-07-13T11:15:15;3.20;;;1.50;;
11024;SDS011;22890;51.820;8.682;2023-07-13T11:17:54;2.03;;;1.50;;
11024;SDS011;22890;51.820;8.682;2023-07-13T11:20:33;6.53;;;1.90;;
11024;SDS011;22890;51.820;8.682;2023-07-13T11:23:09;4.77;;;1.70;;
11024;SDS011;22890;51.820;8.682;2023-07-13T11:25:52;2.07;;;1.10;;
11024;SDS011;22890;51.820;8.682;2023-07-13T11:28:23;3.53;;;1.43;;
11024;SDS011;22890;51.820;8.682;2023-07-13T11:36:05;4.00;;;1.53;;
11024;SDS011;22890;51.820;8.682;2023-07-13T11:38:42;3.90;;;1.70;;
11024;SDS011;22890;51.820;8.682;2023-07-13T11:41:20;3.27;;;1.73;;
11024;SDS011;22890;51.820;8.682;2023-07-13T11:43:53;2.43;;;1.10;;
11024;SDS011;22890;51.820;8.682;2023-07-13T11:46:22;2.20;;;1.23;;
11024;SDS011;22890;51.820;8.682;2023-07-13T11:48:52;2.03;;;1.23;;
11024;SDS011;22890;51.820;8.682;2023-07-13T11:54:01;3.60;;;1.43;;
11024;SDS011;22890;51.820;8.682;2023-07-13T11:56:31;1.23;;;1.00;;
11024;SDS011;22890;51.820;8.682;2023-07-13T11:58:59;2.57;;;1.30;;
11024;SDS011;22890;51.820;8.682;2023-07-13T12:01:32;3.60;;;1.53;;
11024;SDS011;22890;51.820;8.682;2023-07-13T12:04:02;4.27;;;1.40;;
11024;SDS011;22890;51.820;8.682;2023-07-13T12:06:31;3.33;;;1.60;;
11024;SDS011;22890;51.820;8.682;2023-07-13T12:09:00;2.60;;;1.70;;
11024;SDS011;22890;51.820;8.682;2023-07-13T12:11:30;6.33;;;1.80;;
11024;SDS011;22890;51.820;8.682;2023-07-13T12:14:01;2.00;;;1.40;;
11024;SDS011;22890;51.820;8.682;2023-07-13T12:16:29;6.53;;;1.67;;
11024;SDS011;22890;51.820;8.682;2023-07-13T12:18:59;4.47;;;2.17;;
11024;SDS011;22890;51.820;8.682;2023-07-13T12:21:29;1.60;;;1.50;;
11024;SDS011;22890;51.820;8.682;2023-07-13T12:23:58;3.27;;;1.43;;
11024;SDS011;22890;51.820;8.682;2023-07-13T12:26:28;4.17;;;1.50;;
11024;SDS011;22890;51.820;8.682;2023-07-13T12:28:58;3.87;;;1.43;;
11024;SDS011;22890;51.820;8.682;2023-07-13T12:31:33;4.37;;;1.60;;
11024;SDS011;22890;51.820;8.682;2023-07-13T12:34:07;2.67;;;1.43;;
11024;SDS011;22890;51.820;8.682;2023-07-13T12:36:55;4.60;;;1.33;;
11024;SDS011;22890;51.820;8.682;2023-07-13T12:39:35;4.20;;;1.90;;
11024;SDS011;22890;51.820;8.682;2023-07-13T12:42:20;2.73;;;1.47;;
11024;SDS011;22890;51.820;8.682;2023-07-13T12:44:50;4.27;;;1.57;;
11024;SDS011;22890;51.820;8.682;2023-07-13T12:47:25;3.13;;;1.80;;
11024;SDS011;22890;51.820;8.682;2023-07-13T12:49:56;5.13;;;1.60;;
11024;SDS011;22890;51.820;8.682;2023-07-13T12:52:31;3.57;;;1.50;;
11024;SDS011;22890;51.820;8.682;2023-07-13T12:55:07;4.90;;;1.90;;
11024;SDS011;22890;51.820;8.682;2023-07-13T12:57:41;4.73;;;1.93;;
11024;SDS011;22890;51.820;8.682;2023-07-13T13:00:22;3.70;;;2.03;;
11024;SDS011;22890;51.820;8.682;2023-07-13T13:03:20;3.37;;;1.73;;
11024;SDS011;22890;51.820;8.682;2023-07-13T13:06:06;5.27;;;1.57;;
11024;SDS011;22890;51.820;8.682;2023-07-13T13:08:46;4.07;;;1.70;;
11024;SDS011;22890;51.820;8.682;2023-07-13T13:11:18;5.97;;;1.90;;
11024;SDS011;22890;51.820;8.682;2023-07-13T13:13:46;3.40;;;1.80;;
11024;SDS011;22890;51.820;8.682;2023-07-13T13:16:15;3.30;;;1.43;;
11024;SDS011;22890;51.820;8.682;2023-07-13T13:18:46;2.87;;;2.13;;
11024;SDS011;22890;51.820;8.682;2023-07-13T13:21:15;5.27;;;1.50;;
11024;SDS011;22890;51.820;8.682;2023-07-13T13:23:42;5.40;;;2.13;;
11024;SDS011;22890;51.820;8.682;2023-07-13T13:26:11;6.30;;;2.20;;
11024;SDS011;22890;51.820;8.682;2023-07-13T13:28:39;5.97;;;2.20;;
11024;SDS011;22890;51.820;8.682;2023-07-13T13:31:07;4.77;;;1.63;;
11024;SDS011;22890;51.820;8.682;2023-07-13T13:33:39;3.97;;;1.90;;
11024;SDS011;22890;51.820;8.682;2023-07-13T13:36:18;2.53;;;2.00;;
11024;SDS011;22890;51.820;8.682;2023-07-13T13:38:47;2.53;;;1.87;;
11024;SDS011;22890;51.820;8.682;2023-07-13T13:41:15;4.17;;;1.93;;
11024;SDS011;22890;51.820;8.682;2023-07-13T13:43:43;3.77;;;1.90;;
11024;SDS011;22890;51.820;8.682;2023-07-13T13:46:15;5.43;;;2.27;;
11024;SDS011;22890;51.820;8.682;2023-07-13T13:48:44;2.27;;;1.60;;
11024;SDS011;22890;51.820;8.682;2023-07-13T13:51:16;6.03;;;1.53;;
11024;SDS011;22890;51.820;8.682;2023-07-13T13:53:47;4.87;;;1.73;;
11024;SDS011;22890;51.820;8.682;2023-07-13T13:56:14;5.57;;;1.70;;
11024;SDS011;22890;51.820;8.682;2023-07-13T13:58:43;3.97;;;1.57;;
11024;SDS011;22890;51.820;8.682;2023-07-13T14:01:17;2.90;;;1.70;;
11024;SDS011;22890;51.820;8.682;2023-07-13T14:03:46;3.63;;;1.83;;
11024;SDS011;22890;51.820;8.682;2023-07-13T14:06:17;3.60;;;1.70;;
11024;SDS011;22890;51.820;8.682;2023-07-13T14:08:44;2.97;;;1.50;;
11024;SDS011;22890;51.820;8.682;2023-07-13T14:11:12;5.90;;;1.87;;
11024;SDS011;22890;51.820;8.682;2023-07-13T14:13:41;3.77;;;1.80;;
11024;SDS011;22890;51.820;8.682;2023-07-13T14:16:11;2.90;;;1.60;;
11024;SDS011;22890;51.820;8.682;2023-07-13T14:18:46;1.87;;;1.43;;
11024;SDS011;22890;51.820;8.682;2023-07-13T14:21:18;3.27;;;1.57;;
11024;SDS011;22890;51.820;8.682;2023-07-13T14:23:46;5.23;;;1.50;;
11024;SDS011;22890;51.820;8.682;2023-07-13T14:26:15;2.70;;;1.67;;
11024;SDS011;22890;51.820;8.682;2023-07-13T14:28:48;3.00;;;1.60;;
11024;SDS011;22890;51.820;8.682;2023-07-13T14:31:16;4.10;;;1.43;;
11024;SDS011;22890;51.820;8.682;2023-07-13T14:33:44;5.80;;;1.87;;
11024;SDS011;22890;51.820;8.682;2023-07-13T14:36:18;3.90;;;1.80;;
11024;SDS011;22890;51.820;8.682;2023-07-13T14:38:51;3.13;;;2.00;;
11024;SDS011;22890;51.820;8.682;2023-07-13T14:41:19;6.07;;;2.10;;
11024;SDS011;22890;51.820;8.682;2023-07-13T14:43:46;3.93;;;2.07;;
11024;SDS011;22890;51.820;8.682;2023-07-13T14:46:29;3.27;;;1.83;;
11024;SDS011;22890;51.820;8.682;2023-07-13T14:48:59;3.67;;;1.80;;
11024;SDS011;22890;51.820;8.682;2023-07-13T14:51:32;4.00;;;1.70;;
11024;SDS011;22890;51.820;8.682;2023-07-13T14:54:04;3.20;;;1.87;;
11024;SDS011;22890;51.820;8.682;2023-07-13T14:56:32;2.43;;;1.80;;
11024;SDS011;22890;51.820;8.682;2023-07-13T14:59:00;2.43;;;1.97;;
11024;SDS011;22890;51.820;8.682;2023-07-13T15:01:26;4.17;;;2.87;;
11024;SDS011;22890;51.820;8.682;2023-07-13T15:03:54;6.10;;;2.30;;
11024;SDS011;22890;51.820;8.682;2023-07-13T15:06:21;6.97;;;2.50;;
11024;SDS011;22890;51.820;8.682;2023-07-13T15:08:48;3.67;;;2.40;;
11024;SDS011;22890;51.820;8.682;2023-07-13T15:11:17;2.83;;;2.60;;
11024;SDS011;22890;51.820;8.682;2023-07-13T15:13:44;6.20;;;2.83;;
11024;SDS011;22890;51.820;8.682;2023-07-13T15:16:18;4.17;;;3.00;;
11024;SDS011;22890;51.820;8.682;2023-07-13T15:18:50;6.43;;;2.63;;
11024;SDS011;22890;51.820;8.682;2023-07-13T15:21:21;9.00;;;5.83;;
11024;SDS011;22890;51.820;8.682;2023-07-13T15:23:50;5.77;;;4.40;;
11024;SDS011;22890;51.820;8.682;2023-07-13T15:26:18;5.93;;;3.10;;
11024;SDS011;22890;51.820;8.682;2023-07-13T15:28:46;5.53;;;2.43;;
11024;SDS011;22890;51.820;8.682;2023-07-13T15:33:45;4.93;;;2.10;;
11024;SDS011;22890;51.820;8.682;2023-07-13T15:36:18;3.33;;;1.73;;
11024;SDS011;22890;51.820;8.682;2023-07-13T15:38:46;2.87;;;2.00;;
11024;SDS011;22890;51.820;8.682;2023-07-13T15:43:49;3.67;;;1.90;;